Time;durP1;ratioP1;P1;durP2;ratioP2;P2;SDS_P1;SDS_P2;PMS_P1;PMS_P2;Temp;Humidity;BMP_temperature;BMP_pressure;BME280_temperature;BME280_humidity;BME280_pressure;Samples;Min_cycle;Max_cycle;Signal;HPM_P1;HPM_P2
2023/06/10 00:02:06;;;;;;;6.45;3.70;;;;;;;;;;4387304;32;316679;-90
2023/06/10 00:04:33;;;;;;;9.95;4.75;;;;;;;;;;4376195;32;316882;-91
2023/06/10 00:07:00;;;;;;;7.18;3.78;;;;;;;;;;4388481;32;316861;-90
2023/06/10 00:09:28;;;;;;;8.30;4.10;;;;;;;;;;4377568;32;316785;-90
2023/06/10 00:11:59;;;;;;;8.40;4.30;;;;;;;;;;4385964;32;317032;-90
2023/06/10 00:14:27;;;;;;;6.70;3.97;;;;;;;;;;4377907;32;316531;-91
2023/06/10 00:16:55;;;;;;;8.55;3.72;;;;;;;;;;4386162;32;316734;-80
2023/06/10 00:19:25;;;;;;;5.35;4.32;;;;;;;;;;4377418;32;316872;-89
2023/06/10 00:21:53;;;;;;;10.07;4.10;;;;;;;;;;4387804;32;316814;-91
2023/06/10 00:24:20;;;;;;;5.07;3.87;;;;;;;;;;4377559;32;317711;-83
2023/06/10 00:26:48;;;;;;;7.82;3.40;;;;;;;;;;4385665;32;316937;-89
2023/06/10 00:29:16;;;;;;;5.28;3.55;;;;;;;;;;4386908;32;316942;-86
2023/06/10 00:31:43;;;;;;;8.85;4.45;;;;;;;;;;4376475;32;317030;-91
2023/06/10 00:34:10;;;;;;;15.80;4.53;;;;;;;;;;4387953;32;316700;-89
2023/06/10 00:36:39;;;;;;;9.05;3.92;;;;;;;;;;4375881;32;318088;-91
2023/06/10 00:39:07;;;;;;;4.97;3.78;;;;;;;;;;4387254;32;316760;-90
2023/06/10 00:41:34;;;;;;;11.18;3.80;;;;;;;;;;4374694;32;317072;-90
2023/06/10 00:44:02;;;;;;;6.00;4.20;;;;;;;;;;4385376;32;317986;-90
2023/06/10 00:46:32;;;;;;;11.23;5.18;;;;;;;;;;4376442;32;316551;-91
2023/06/10 00:48:59;;;;;;;10.27;4.82;;;;;;;;;;4386955;32;317818;-90
2023/06/10 00:51:27;;;;;;;14.55;5.93;;;;;;;;;;4377181;32;317859;-89
2023/06/10 00:53:56;;;;;;;8.02;5.40;;;;;;;;;;4386970;32;317765;-83
2023/06/10 00:56:23;;;;;;;11.15;5.03;;;;;;;;;;4376409;32;316650;-87
2023/06/10 00:58:51;;;;;;;13.15;4.68;;;;;;;;;;4385574;32;355933;-89
2023/06/10 01:01:19;;;;;;;9.13;4.82;;;;;;;;;;4387664;32;317937;-90
2023/06/10 01:03:48;;;;;;;8.65;4.80;;;;;;;;;;4374535;32;416196;-91
2023/06/10 01:06:26;;;;;;;6.62;4.47;;;;;;;;;;4386944;32;316754;-90
2023/06/10 01:09:02;;;;;;;5.95;3.85;;;;;;;;;;4373830;32;415918;-91
2023/06/10 01:11:35;;;;;;;4.30;3.37;;;;;;;;;;4375102;32;316955;-90
2023/06/10 01:14:05;;;;;;;7.70;3.97;;;;;;;;;;4387257;32;317018;-91
2023/06/10 01:16:32;;;;;;;10.35;4.10;;;;;;;;;;4375098;32;317088;-90
2023/06/10 01:19:00;;;;;;;7.60;3.87;;;;;;;;;;4387616;32;317894;-91
2023/06/10 01:21:29;;;;;;;7.63;3.57;;;;;;;;;;4374488;32;316738;-90
2023/06/10 01:23:57;;;;;;;8.82;3.40;;;;;;;;;;4386165;32;316909;-88
2023/06/10 01:26:30;;;;;;;6.00;4.68;;;;;;;;;;4376771;32;316923;-83
2023/06/10 01:29:01;;;;;;;8.00;4.47;;;;;;;;;;4385558;32;316940;-90
2023/06/10 01:31:37;;;;;;;8.13;5.87;;;;;;;;;;4374884;32;317126;-90
2023/06/10 01:34:09;;;;;;;9.13;5.30;;;;;;;;;;4386412;32;317015;-90
2023/06/10 01:36:38;;;;;;;5.87;4.53;;;;;;;;;;4374408;32;316727;-88
2023/06/10 01:39:08;;;;;;;8.70;4.20;;;;;;;;;;4386301;32;344014;-89
2023/06/10 01:41:36;;;;;;;6.12;3.85;;;;;;;;;;4374698;32;316896;-91
2023/06/10 01:44:05;;;;;;;6.18;3.67;;;;;;;;;;4385698;32;316591;-89
2023/06/10 01:46:32;;;;;;;6.82;4.30;;;;;;;;;;4376561;32;316869;-88
2023/06/10 01:48:59;;;;;;;12.55;4.37;;;;;;;;;;4387004;32;315747;-90
2023/06/10 01:51:27;;;;;;;5.28;3.80;;;;;;;;;;4374495;32;317784;-89
2023/06/10 01:53:56;;;;;;;9.52;4.15;;;;;;;;;;4387002;32;316926;-82
2023/06/10 01:56:23;;;;;;;9.60;4.55;;;;;;;;;;4373802;32;316708;-89
2023/06/10 01:58:50;;;;;;;5.75;4.68;;;;;;;;;;4386972;32;316845;-89
2023/06/10 02:01:18;;;;;;;5.45;3.83;;;;;;;;;;4386885;32;316733;-90
2023/06/10 02:03:45;;;;;;;5.22;3.40;;;;;;;;;;4375327;32;330143;-90
2023/06/10 02:06:12;;;;;;;12.63;4.45;;;;;;;;;;4385657;32;316691;-87
2023/06/10 02:08:39;;;;;;;15.10;4.93;;;;;;;;;;4376860;32;317843;-81
2023/06/10 02:11:08;;;;;;;18.83;5.93;;;;;;;;;;4386287;32;318006;-90
2023/06/10 02:13:36;;;;;;;16.95;6.97;;;;;;;;;;4375702;32;317878;-89
2023/06/10 02:16:03;;;;;;;13.13;6.22;;;;;;;;;;4385209;32;317731;-89
2023/06/10 02:18:30;;;;;;;13.80;5.72;;;;;;;;;;4374592;32;318249;-89
2023/06/10 02:20:58;;;;;;;8.88;4.60;;;;;;;;;;4386138;32;318335;-89
2023/06/10 02:23:25;;;;;;;11.12;5.75;;;;;;;;;;4371196;32;317685;-81
2023/06/10 02:25:52;;;;;;;16.40;5.40;;;;;;;;;;4385334;32;317900;-89
2023/06/10 02:28:21;;;;;;;15.05;5.53;;;;;;;;;;4385198;32;317875;-87
2023/06/10 02:30:49;;;;;;;11.52;5.40;;;;;;;;;;4373407;32;417266;-88
2023/06/10 02:33:17;;;;;;;14.23;5.50;;;;;;;;;;4385916;32;317502;-89
2023/06/10 02:35:45;;;;;;;9.43;5.40;;;;;;;;;;4373785;32;318237;-89
2023/06/10 02:38:12;;;;;;;10.05;5.10;;;;;;;;;;4385158;32;316733;-89
2023/06/10 02:40:39;;;;;;;11.15;5.72;;;;;;;;;;4375306;32;318067;-88
2023/06/10 02:43:06;;;;;;;9.80;5.57;;;;;;;;;;4385703;32;318088;-89
2023/06/10 02:45:35;;;;;;;10.05;5.28;;;;;;;;;;4376206;32;317115;-89
2023/06/10 02:48:02;;;;;;;9.48;5.62;;;;;;;;;;4385419;32;318009;-88
2023/06/10 02:50:30;;;;;;;11.48;4.95;;;;;;;;;;4376157;32;316794;-88
2023/06/10 02:52:57;;;;;;;14.07;4.82;;;;;;;;;;4385233;32;317987;-89
2023/06/10 02:55:26;;;;;;;9.00;4.62;;;;;;;;;;4373512;32;317931;-88
2023/06/10 02:57:53;;;;;;;15.80;6.05;;;;;;;;;;4384924;32;316996;-88
2023/06/10 03:00:22;;;;;;;12.45;6.03;;;;;;;;;;4374122;32;376147;-82
2023/06/10 03:02:51;;;;;;;18.85;6.43;;;;;;;;;;4384627;32;318171;-90
2023/06/10 03:05:18;;;;;;;11.32;5.05;;;;;;;;;;4386235;32;317877;-89
2023/06/10 03:07:46;;;;;;;15.18;6.15;;;;;;;;;;4371427;32;415135;-90
2023/06/10 03:10:13;;;;;;;8.10;5.75;;;;;;;;;;4383365;32;317653;-89
2023/06/10 03:12:40;;;;;;;6.65;4.68;;;;;;;;;;4375893;32;316806;-85
2023/06/10 03:15:09;;;;;;;11.50;5.00;;;;;;;;;;4386146;32;316825;-89
2023/06/10 03:17:36;;;;;;;9.38;4.97;;;;;;;;;;4374937;32;318193;-89
2023/06/10 03:20:07;;;;;;;6.20;4.32;;;;;;;;;;4386007;32;316709;-89
2023/06/10 03:22:35;;;;;;;8.57;4.40;;;;;;;;;;4374260;32;316821;-88
2023/06/10 03:25:03;;;;;;;7.97;4.25;;;;;;;;;;4385850;32;316675;-88
2023/06/10 03:27:31;;;;;;;7.03;4.50;;;;;;;;;;4374478;32;334046;-90
2023/06/10 03:29:58;;;;;;;7.10;4.25;;;;;;;;;;4384787;32;316746;-88
2023/06/10 03:32:25;;;;;;;10.50;5.03;;;;;;;;;;4374633;32;316934;-83
2023/06/10 03:34:57;;;;;;;15.40;5.37;;;;;;;;;;4386422;32;317882;-90
2023/06/10 03:37:26;;;;;;;10.23;4.62;;;;;;;;;;4378442;32;317923;-86
2023/06/10 03:39:54;;;;;;;9.73;5.05;;;;;;;;;;4388830;32;317919;-90
2023/06/10 03:42:21;;;;;;;9.50;4.80;;;;;;;;;;4376390;32;316952;-88
2023/06/10 03:44:48;;;;;;;10.77;6.85;;;;;;;;;;4388462;32;316808;-87
2023/06/10 03:47:16;;;;;;;18.48;6.35;;;;;;;;;;4388464;32;317941;-89
2023/06/10 03:49:43;;;;;;;14.05;6.05;;;;;;;;;;4377139;32;327487;-88
2023/06/10 03:52:10;;;;;;;9.80;5.93;;;;;;;;;;4388095;32;317607;-80
2023/06/10 03:54:39;;;;;;;11.73;6.32;;;;;;;;;;4378251;32;317053;-88
2023/06/10 03:57:06;;;;;;;7.55;6.00;;;;;;;;;;4387628;32;317793;-90
2023/06/10 03:59:34;;;;;;;9.25;4.90;;;;;;;;;;4377530;32;316878;-89
2023/06/10 04:02:01;;;;;;;7.75;5.40;;;;;;;;;;4387382;32;316813;-89
2023/06/10 04:04:29;;;;;;;8.93;4.60;;;;;;;;;;4378052;32;316566;-89
2023/06/10 04:06:57;;;;;;;11.30;4.90;;;;;;;;;;4387555;32;317054;-88
2023/06/10 04:09:24;;;;;;;9.57;4.93;;;;;;;;;;4374542;32;317667;-92
2023/06/10 04:11:53;;;;;;;10.57;4.32;;;;;;;;;;4387380;32;316701;-89
2023/06/10 04:14:21;;;;;;;8.25;4.87;;;;;;;;;;4383611;32;317616;-87
2023/06/10 04:16:48;;;;;;;9.48;5.10;;;;;;;;;;4387794;32;316759;-88
2023/06/10 04:19:16;;;;;;;14.93;6.15;;;;;;;;;;4386822;32;349475;-90
2023/06/10 04:21:43;;;;;;;13.15;6.32;;;;;;;;;;4377308;32;318970;-91
2023/06/10 04:24:11;;;;;;;18.17;7.78;;;;;;;;;;4388539;32;317747;-79
2023/06/10 04:26:38;;;;;;;11.68;7.57;;;;;;;;;;4378502;32;317470;-86
2023/06/10 04:29:07;;;;;;;12.07;7.70;;;;;;;;;;4398456;32;317451;-85
2023/06/10 04:31:34;;;;;;;12.55;7.80;;;;;;;;;;4395028;32;317268;-89
2023/06/10 04:34:02;;;;;;;22.23;7.32;;;;;;;;;;4402357;32;316859;-84
2023/06/10 04:36:29;;;;;;;12.73;7.00;;;;;;;;;;4389521;32;317492;-87
2023/06/10 04:38:57;;;;;;;14.05;6.22;;;;;;;;;;4390744;32;317724;-78
2023/06/10 04:41:25;;;;;;;11.82;7.25;;;;;;;;;;4372613;32;317902;-79
2023/06/10 04:43:53;;;;;;;7.37;6.57;;;;;;;;;;4387930;32;318012;-78
2023/06/10 04:46:24;;;;;;;11.80;6.07;;;;;;;;;;4386088;32;316734;-79
2023/06/10 04:48:54;;;;;;;8.88;5.80;;;;;;;;;;4387217;32;342409;-89
2023/06/10 04:51:21;;;;;;;16.05;5.90;;;;;;;;;;4384575;32;316412;-80
2023/06/10 04:53:48;;;;;;;10.02;6.00;;;;;;;;;;4397864;32;317466;-82
2023/06/10 04:56:16;;;;;;;10.63;6.30;;;;;;;;;;4401949;32;317630;-79
2023/06/10 04:58:43;;;;;;;18.58;9.65;;;;;;;;;;4391140;32;316142;-80
2023/06/10 05:01:11;;;;;;;24.58;14.30;;;;;;;;;;4397125;32;317313;-82
2023/06/10 05:03:40;;;;;;;17.50;10.95;;;;;;;;;;4376186;32;318639;-90
2023/06/10 05:06:09;;;;;;;14.25;9.45;;;;;;;;;;4386601;32;318827;-90
2023/06/10 05:08:37;;;;;;;13.93;9.23;;;;;;;;;;4376151;32;317791;-90
2023/06/10 05:11:04;;;;;;;12.15;7.85;;;;;;;;;;4381236;32;317723;-90
2023/06/10 05:13:32;;;;;;;14.63;9.23;;;;;;;;;;4382462;32;317796;-90
2023/06/10 05:16:00;;;;;;;13.07;7.68;;;;;;;;;;4385783;32;317877;-83
2023/06/10 05:18:27;;;;;;;12.52;7.28;;;;;;;;;;4376353;32;318037;-79
2023/06/10 05:20:56;;;;;;;11.65;7.57;;;;;;;;;;4386083;32;318096;-78
2023/06/10 05:23:23;;;;;;;10.73;7.35;;;;;;;;;;4374513;32;317887;-79
2023/06/10 05:25:50;;;;;;;7.53;5.87;;;;;;;;;;4386314;32;318119;-77
2023/06/10 05:28:18;;;;;;;8.57;5.72;;;;;;;;;;4386675;32;316708;-82
2023/06/10 05:30:45;;;;;;;9.27;5.65;;;;;;;;;;4373334;32;417441;-78
2023/06/10 05:33:13;;;;;;;17.12;7.82;;;;;;;;;;4385909;32;316748;-79
2023/06/10 05:35:40;;;;;;;9.60;7.00;;;;;;;;;;4376588;32;317842;-78
2023/06/10 05:38:09;;;;;;;11.05;6.90;;;;;;;;;;4386643;32;316678;-77
2023/06/10 05:40:36;;;;;;;8.95;5.72;;;;;;;;;;4375880;32;318045;-78
2023/06/10 05:43:05;;;;;;;15.85;6.35;;;;;;;;;;4385368;32;316756;-78
2023/06/10 05:45:32;;;;;;;15.20;7.32;;;;;;;;;;4376796;32;317895;-79
2023/06/10 05:47:59;;;;;;;11.30;6.55;;;;;;;;;;4369685;32;317961;-78
2023/06/10 05:50:30;;;;;;;10.38;6.03;;;;;;;;;;4376464;32;317635;-80
2023/06/10 05:52:57;;;;;;;14.18;6.10;;;;;;;;;;4386706;32;317914;-77
2023/06/10 05:55:26;;;;;;;14.93;5.57;;;;;;;;;;4376234;32;318119;-77
2023/06/10 05:58:01;;;;;;;11.55;6.12;;;;;;;;;;4386860;32;317864;-77
2023/06/10 06:00:28;;;;;;;9.43;6.03;;;;;;;;;;4376167;32;317748;-78
2023/06/10 06:02:57;;;;;;;10.00;5.57;;;;;;;;;;4385493;32;316597;-78
2023/06/10 06:05:24;;;;;;;9.07;5.07;;;;;;;;;;4375718;32;318057;-77
2023/06/10 06:07:52;;;;;;;9.88;5.20;;;;;;;;;;4385573;32;316897;-77
2023/06/10 06:10:19;;;;;;;12.30;5.75;;;;;;;;;;4371573;32;317171;-81
2023/06/10 06:12:48;;;;;;;14.85;5.95;;;;;;;;;;4385526;32;317576;-87
2023/06/10 06:15:16;;;;;;;10.77;6.53;;;;;;;;;;4376260;32;317959;-83
2023/06/10 06:17:43;;;;;;;15.55;5.50;;;;;;;;;;4385258;32;317701;-85
2023/06/10 06:20:12;;;;;;;13.45;5.53;;;;;;;;;;4385722;32;317798;-86
2023/06/10 06:22:39;;;;;;;9.88;5.20;;;;;;;;;;4374857;32;317774;-85
2023/06/10 06:25:07;;;;;;;11.93;6.30;;;;;;;;;;4383623;32;316567;-86
2023/06/10 06:27:34;;;;;;;15.27;5.00;;;;;;;;;;4374046;32;318021;-85
2023/06/10 06:30:03;;;;;;;6.97;4.55;;;;;;;;;;4385975;32;317494;-85
2023/06/10 06:32:31;;;;;;;8.75;5.35;;;;;;;;;;4375932;32;316922;-82
2023/06/10 06:34:58;;;;;;;14.60;4.97;;;;;;;;;;4384051;32;316811;-86
2023/06/10 06:37:26;;;;;;;10.00;5.40;;;;;;;;;;4376409;32;318063;-86
2023/06/10 06:39:54;;;;;;;10.90;5.05;;;;;;;;;;4385866;32;317896;-88
2023/06/10 06:42:22;;;;;;;8.77;5.83;;;;;;;;;;4370788;32;317966;-85
2023/06/10 06:44:49;;;;;;;13.00;5.12;;;;;;;;;;4384395;32;316002;-81
2023/06/10 06:47:19;;;;;;;6.55;4.85;;;;;;;;;;4373728;32;318275;-80
2023/06/10 06:49:47;;;;;;;8.18;4.47;;;;;;;;;;4385313;32;316939;-80
2023/06/10 06:52:15;;;;;;;8.65;4.53;;;;;;;;;;4383936;32;316632;-82
2023/06/10 06:54:42;;;;;;;10.35;4.55;;;;;;;;;;4372073;32;418745;-82
2023/06/10 06:57:09;;;;;;;5.68;4.70;;;;;;;;;;4384110;32;317654;-82
2023/06/10 06:59:37;;;;;;;12.25;5.30;;;;;;;;;;4375373;32;316998;-82
2023/06/10 07:02:04;;;;;;;12.30;6.57;;;;;;;;;;4384122;32;318074;-82
2023/06/10 07:04:33;;;;;;;11.32;4.40;;;;;;;;;;4375601;32;317837;-82
2023/06/10 07:07:01;;;;;;;8.07;4.50;;;;;;;;;;4383560;32;317884;-81
2023/06/10 07:09:28;;;;;;;8.43;5.03;;;;;;;;;;4375264;32;317060;-82
2023/06/10 07:11:56;;;;;;;6.93;5.10;;;;;;;;;;4388830;32;316670;-81
2023/06/10 07:14:23;;;;;;;11.48;6.25;;;;;;;;;;4378261;32;316970;-83
2023/06/10 07:16:50;;;;;;;14.85;5.95;;;;;;;;;;4388197;32;345190;-82
2023/06/10 07:19:18;;;;;;;74.07;47.75;;;;;;;;;;4378192;32;317880;-82
2023/06/10 07:21:47;;;;;;;25.70;17.75;;;;;;;;;;4388747;32;318858;-77
2023/06/10 07:24:14;;;;;;;17.05;13.77;;;;;;;;;;4386397;32;318837;-77
2023/06/10 07:26:42;;;;;;;14.10;9.93;;;;;;;;;;4375001;32;418142;-77
2023/06/10 07:29:09;;;;;;;17.98;8.02;;;;;;;;;;4386521;32;317861;-80
2023/06/10 07:31:36;;;;;;;13.23;7.97;;;;;;;;;;4377769;32;317644;-78
2023/06/10 07:34:04;;;;;;;14.70;8.00;;;;;;;;;;4388528;32;317896;-78
2023/06/10 07:36:31;;;;;;;13.43;6.80;;;;;;;;;;4378087;32;318455;-79
2023/06/10 07:39:00;;;;;;;8.82;6.72;;;;;;;;;;4387853;32;317861;-79
2023/06/10 07:41:27;;;;;;;12.60;7.40;;;;;;;;;;4375854;32;316794;-78
2023/06/10 07:43:55;;;;;;;11.95;6.37;;;;;;;;;;4387974;32;317785;-79
2023/06/10 07:46:23;;;;;;;15.07;6.53;;;;;;;;;;4378169;32;318089;-79
2023/06/10 07:48:51;;;;;;;9.77;6.07;;;;;;;;;;4387452;32;317842;-77
2023/06/10 07:51:18;;;;;;;18.33;7.68;;;;;;;;;;4377794;32;317241;-78
2023/06/10 07:53:45;;;;;;;13.60;6.85;;;;;;;;;;4387767;32;317626;-79
2023/06/10 07:56:14;;;;;;;8.85;6.22;;;;;;;;;;4388380;32;317679;-78
2023/06/10 07:58:41;;;;;;;14.70;5.97;;;;;;;;;;4374678;32;416249;-78
2023/06/10 08:01:09;;;;;;;7.55;5.12;;;;;;;;;;4388235;32;316598;-78
2023/06/10 08:03:36;;;;;;;7.80;5.15;;;;;;;;;;4377192;32;316767;-78
2023/06/10 08:06:04;;;;;;;7.55;4.87;;;;;;;;;;4387571;32;316551;-78
2023/06/10 08:08:31;;;;;;;6.10;4.25;;;;;;;;;;4377900;32;316804;-78
2023/06/10 08:10:58;;;;;;;11.60;4.45;;;;;;;;;;4387206;32;323043;-77
2023/06/10 08:13:27;;;;;;;6.12;4.82;;;;;;;;;;4376280;32;317952;-77
2023/06/10 08:15:55;;;;;;;8.02;5.62;;;;;;;;;;4388357;32;316894;-77
2023/06/10 08:18:22;;;;;;;11.65;5.75;;;;;;;;;;4377558;32;316797;-78
2023/06/10 08:20:50;;;;;;;5.95;4.47;;;;;;;;;;4387495;32;317864;-78
2023/06/10 08:23:17;;;;;;;13.62;8.38;;;;;;;;;;4374549;32;316802;-78
2023/06/10 08:25:45;;;;;;;8.55;3.90;;;;;;;;;;4388040;32;317938;-78
2023/06/10 08:28:12;;;;;;;8.73;3.67;;;;;;;;;;4387554;32;316882;-78
2023/06/10 08:30:41;;;;;;;4.57;3.40;;;;;;;;;;4374760;32;344690;-78
2023/06/10 08:33:08;;;;;;;7.15;3.08;;;;;;;;;;4387826;32;317147;-78
2023/06/10 08:35:35;;;;;;;7.12;3.15;;;;;;;;;;4377297;32;316656;-77
2023/06/10 08:38:02;;;;;;;8.20;4.00;;;;;;;;;;4386686;32;316898;-77
2023/06/10 08:40:30;;;;;;;5.30;3.00;;;;;;;;;;4378023;32;316627;-77
2023/06/10 08:43:06;;;;;;;10.45;4.72;;;;;;;;;;4386632;32;316647;-77
2023/06/10 08:45:36;;;;;;;5.73;3.77;;;;;;;;;;4376275;32;317793;-77
2023/06/10 08:48:07;;;;;;;10.60;3.53;;;;;;;;;;4387182;32;316949;-78
2023/06/10 08:50:36;;;;;;;5.70;3.33;;;;;;;;;;4375629;32;317714;-77
2023/06/10 08:53:06;;;;;;;3.92;3.53;;;;;;;;;;4386909;32;316680;-79
2023/06/10 08:55:34;;;;;;;7.57;3.87;;;;;;;;;;4376673;32;316823;-78
2023/06/10 08:58:02;;;;;;;4.03;3.40;;;;;;;;;;4386700;32;316859;-79
2023/06/10 09:00:31;;;;;;;5.40;3.67;;;;;;;;;;4376641;32;316929;-78
2023/06/10 09:02:59;;;;;;;11.82;4.30;;;;;;;;;;4387300;32;316827;-78
2023/06/10 09:05:28;;;;;;;7.70;3.55;;;;;;;;;;4376544;32;317792;-78
2023/06/10 09:07:58;;;;;;;7.10;3.50;;;;;;;;;;4386394;32;316731;-78
2023/06/10 09:10:26;;;;;;;4.70;3.03;;;;;;;;;;4375430;32;332334;-79
2023/06/10 09:12:53;;;;;;;6.85;3.45;;;;;;;;;;4386665;32;316900;-79
2023/06/10 09:15:21;;;;;;;3.97;3.28;;;;;;;;;;4374592;32;316898;-78
2023/06/10 09:17:48;;;;;;;5.20;3.95;;;;;;;;;;4386173;32;316976;-78
2023/06/10 09:20:16;;;;;;;8.95;4.82;;;;;;;;;;4381285;32;316735;-80
2023/06/10 09:22:45;;;;;;;9.77;3.60;;;;;;;;;;4386211;32;316910;-81
2023/06/10 09:25:14;;;;;;;7.18;4.82;;;;;;;;;;4385418;32;317250;-79
2023/06/10 09:27:50;;;;;;;6.30;4.05;;;;;;;;;;4373653;32;416368;-77
2023/06/10 09:30:28;;;;;;;7.82;3.53;;;;;;;;;;4376999;32;316756;-78
2023/06/10 09:32:57;;;;;;;4.25;3.60;;;;;;;;;;4386727;32;316621;-77
2023/06/10 09:35:24;;;;;;;4.53;4.05;;;;;;;;;;4376993;32;316950;-78
2023/06/10 09:37:54;;;;;;;6.32;3.83;;;;;;;;;;4386273;32;321100;-78
2023/06/10 09:40:21;;;;;;;8.00;4.40;;;;;;;;;;4373944;32;342202;-79
2023/06/10 09:42:54;;;;;;;7.32;3.87;;;;;;;;;;4386134;32;317002;-79
2023/06/10 09:45:22;;;;;;;8.95;3.67;;;;;;;;;;4376347;32;316656;-80
2023/06/10 09:47:54;;;;;;;9.05;3.90;;;;;;;;;;4386294;32;316863;-84
2023/06/10 09:50:21;;;;;;;6.75;3.83;;;;;;;;;;4376672;32;316487;-84
2023/06/10 09:52:49;;;;;;;5.72;3.45;;;;;;;;;;4385729;32;316721;-84
2023/06/10 09:55:18;;;;;;;5.18;3.70;;;;;;;;;;4376071;32;316719;-83
2023/06/10 09:57:50;;;;;;;6.18;3.05;;;;;;;;;;4384746;32;316716;-83
2023/06/10 10:00:18;;;;;;;8.88;4.05;;;;;;;;;;4375757;32;316837;-80
2023/06/10 10:02:48;;;;;;;8.98;4.37;;;;;;;;;;4385917;32;316866;-83
2023/06/10 10:05:16;;;;;;;4.22;3.62;;;;;;;;;;4386395;32;316648;-81
2023/06/10 10:07:43;;;;;;;11.27;6.72;;;;;;;;;;4372895;32;415988;-81
2023/06/10 10:10:12;;;;;;;8.88;3.50;;;;;;;;;;4385161;32;317808;-82
2023/06/10 10:12:42;;;;;;;4.22;3.70;;;;;;;;;;4373857;32;316468;-82
2023/06/10 10:15:11;;;;;;;7.07;3.53;;;;;;;;;;4386677;32;316870;-82
2023/06/10 10:17:41;;;;;;;4.43;3.47;;;;;;;;;;4376104;32;316834;-82
2023/06/10 10:20:13;;;;;;;4.40;3.75;;;;;;;;;;4383879;32;316728;-81
2023/06/10 10:22:43;;;;;;;5.85;4.03;;;;;;;;;;4372059;32;417395;-82
2023/06/10 10:25:13;;;;;;;5.45;3.80;;;;;;;;;;4384677;32;316657;-82
2023/06/10 10:27:49;;;;;;;6.03;3.67;;;;;;;;;;4375371;32;316767;-81
2023/06/10 10:30:21;;;;;;;9.80;3.83;;;;;;;;;;4376075;32;317003;-81
2023/06/10 10:32:56;;;;;;;10.30;4.10;;;;;;;;;;4385981;32;316904;-81
2023/06/10 10:35:26;;;;;;;5.07;3.77;;;;;;;;;;4374625;32;338441;-81
2023/06/10 10:37:54;;;;;;;5.80;4.20;;;;;;;;;;4386567;32;316558;-82
2023/06/10 10:40:22;;;;;;;4.12;3.12;;;;;;;;;;4375172;32;345553;-81
2023/06/10 10:42:53;;;;;;;6.00;4.00;;;;;;;;;;4384951;32;317114;-82
2023/06/10 10:45:22;;;;;;;5.20;3.78;;;;;;;;;;4374945;32;316978;-82
2023/06/10 10:47:55;;;;;;;3.17;2.78;;;;;;;;;;4384871;32;316813;-81
2023/06/10 10:50:23;;;;;;;4.03;2.95;;;;;;;;;;4369304;32;317044;-82
2023/06/10 10:52:55;;;;;;;5.70;4.35;;;;;;;;;;4396314;32;316679;-82
2023/06/10 10:55:24;;;;;;;6.85;3.75;;;;;;;;;;4374756;32;316753;-82
2023/06/10 10:58:00;;;;;;;4.10;2.87;;;;;;;;;;4386149;32;316552;-82
2023/06/10 11:00:32;;;;;;;5.60;4.65;;;;;;;;;;4375947;32;316849;-82
2023/06/10 11:03:01;;;;;;;6.32;4.07;;;;;;;;;;4384667;32;316843;-82
2023/06/10 11:05:40;;;;;;;7.82;6.97;;;;;;;;;;4375609;32;316850;-83
2023/06/10 11:08:09;;;;;;;5.45;4.12;;;;;;;;;;4385065;32;316662;-82
2023/06/10 11:10:37;;;;;;;5.32;3.92;;;;;;;;;;4375987;32;316596;-82
2023/06/10 11:13:13;;;;;;;5.15;4.25;;;;;;;;;;4384881;32;316875;-82
2023/06/10 11:15:44;;;;;;;5.03;3.50;;;;;;;;;;4375781;32;316781;-82
2023/06/10 11:18:16;;;;;;;4.00;3.60;;;;;;;;;;4385482;32;317678;-83
2023/06/10 11:20:52;;;;;;;6.93;4.62;;;;;;;;;;4371732;32;415924;-82
2023/06/10 11:23:42;;;;;;;5.28;4.65;;;;;;;;;;4373682;32;317063;-82
2023/06/10 11:26:14;;;;;;;5.05;4.55;;;;;;;;;;4385282;32;316750;-83
2023/06/10 11:29:02;;;;;;;5.60;4.93;;;;;;;;;;4372334;32;417042;-83
2023/06/10 11:31:30;;;;;;;4.68;4.10;;;;;;;;;;4374797;32;316913;-82
2023/06/10 11:33:58;;;;;;;3.70;3.40;;;;;;;;;;4386029;32;316775;-83
2023/06/10 11:36:26;;;;;;;5.37;4.13;;;;;;;;;;4372520;32;327668;-83
2023/06/10 11:38:56;;;;;;;4.07;3.40;;;;;;;;;;4384957;32;316687;-83
2023/06/10 11:41:25;;;;;;;4.25;3.30;;;;;;;;;;4373160;32;316984;-83
2023/06/10 11:43:55;;;;;;;4.30;3.50;;;;;;;;;;4385380;32;341010;-83
2023/06/10 11:46:23;;;;;;;5.18;3.55;;;;;;;;;;4373730;32;316727;-83
2023/06/10 11:48:51;;;;;;;4.70;3.05;;;;;;;;;;4385819;32;316918;-83
2023/06/10 11:51:18;;;;;;;4.97;3.12;;;;;;;;;;4375229;32;316852;-81
2023/06/10 11:53:46;;;;;;;3.90;3.20;;;;;;;;;;4385213;32;316818;-82
2023/06/10 11:56:13;;;;;;;4.85;3.25;;;;;;;;;;4385829;32;316965;-82
2023/06/10 11:58:46;;;;;;;4.62;3.83;;;;;;;;;;4378799;32;316660;-81
2023/06/10 12:01:21;;;;;;;6.57;3.58;;;;;;;;;;4387815;32;316687;-81
2023/06/10 12:03:48;;;;;;;4.82;3.70;;;;;;;;;;4375597;32;416221;-81
2023/06/10 12:06:16;;;;;;;5.32;3.55;;;;;;;;;;4384011;32;316802;-82
2023/06/10 12:08:44;;;;;;;4.25;3.53;;;;;;;;;;4388628;32;316641;-82
2023/06/10 12:11:12;;;;;;;4.85;4.35;;;;;;;;;;4388265;32;316939;-82
2023/06/10 12:13:48;;;;;;;3.92;3.10;;;;;;;;;;4376439;32;316837;-81
2023/06/10 12:16:17;;;;;;;4.47;3.35;;;;;;;;;;4387896;32;317001;-82
2023/06/10 12:18:46;;;;;;;5.18;4.18;;;;;;;;;;4374007;32;416476;-82
2023/06/10 12:21:25;;;;;;;4.47;4.03;;;;;;;;;;4388561;32;316667;-83
2023/06/10 12:24:07;;;;;;;4.32;3.67;;;;;;;;;;4375509;32;416039;-83
2023/06/10 12:26:42;;;;;;;4.70;4.05;;;;;;;;;;4378072;32;316839;-82
2023/06/10 12:29:24;;;;;;;4.53;3.62;;;;;;;;;;4388932;32;316690;-82
2023/06/10 12:32:00;;;;;;;4.07;3.30;;;;;;;;;;4374729;32;417382;-82
2023/06/10 12:34:38;;;;;;;5.85;3.47;;;;;;;;;;4377721;32;316712;-82
2023/06/10 12:37:07;;;;;;;3.80;3.37;;;;;;;;;;4386243;32;316839;-82
2023/06/10 12:39:36;;;;;;;6.00;3.92;;;;;;;;;;4377594;32;316799;-82
2023/06/10 12:42:05;;;;;;;4.12;3.50;;;;;;;;;;4388406;32;316836;-82
2023/06/10 12:44:34;;;;;;;4.45;3.65;;;;;;;;;;4377381;32;316995;-82
2023/06/10 12:47:07;;;;;;;4.35;3.60;;;;;;;;;;4388184;32;316658;-82
2023/06/10 12:49:35;;;;;;;4.57;4.18;;;;;;;;;;4375927;32;316554;-81
2023/06/10 12:52:03;;;;;;;4.72;4.28;;;;;;;;;;4386116;32;316717;-81
2023/06/10 12:54:30;;;;;;;4.10;3.70;;;;;;;;;;4378384;32;316853;-82
2023/06/10 12:56:57;;;;;;;4.85;4.20;;;;;;;;;;4387606;32;316782;-82
2023/06/10 12:59:25;;;;;;;8.13;4.37;;;;;;;;;;4376852;32;316941;-83
2023/06/10 13:01:53;;;;;;;4.12;3.67;;;;;;;;;;4387358;32;316966;-82
2023/06/10 13:04:22;;;;;;;8.48;4.30;;;;;;;;;;4377497;32;316564;-82
2023/06/10 13:06:50;;;;;;;5.40;4.90;;;;;;;;;;4386761;32;316891;-82
2023/06/10 13:09:17;;;;;;;4.40;3.65;;;;;;;;;;4377100;32;316894;-81
2023/06/10 13:11:45;;;;;;;5.07;4.20;;;;;;;;;;4385284;32;316877;-83
2023/06/10 13:14:13;;;;;;;5.20;4.32;;;;;;;;;;4387808;32;316748;-83
2023/06/10 13:16:40;;;;;;;5.70;4.25;;;;;;;;;;4376152;32;317172;-88
2023/06/10 13:19:07;;;;;;;4.82;3.67;;;;;;;;;;4387641;32;316726;-86
2023/06/10 13:21:36;;;;;;;8.27;4.72;;;;;;;;;;4377147;32;316916;-85
2023/06/10 13:24:04;;;;;;;6.72;4.45;;;;;;;;;;4386363;32;316716;-84
2023/06/10 13:26:31;;;;;;;5.68;4.15;;;;;;;;;;4377657;32;316672;-86
2023/06/10 13:28:59;;;;;;;11.70;4.25;;;;;;;;;;4386844;32;323390;-83
2023/06/10 13:31:26;;;;;;;8.25;4.95;;;;;;;;;;4375135;32;317838;-80
2023/06/10 13:33:53;;;;;;;4.85;4.32;;;;;;;;;;4387004;32;316039;-81
2023/06/10 13:36:20;;;;;;;16.45;4.45;;;;;;;;;;4377585;32;317227;-81
2023/06/10 13:38:49;;;;;;;7.95;4.10;;;;;;;;;;4386584;32;317997;-81
2023/06/10 13:41:16;;;;;;;7.20;4.22;;;;;;;;;;4377269;32;316966;-82
2023/06/10 13:43:44;;;;;;;4.65;4.25;;;;;;;;;;4385926;32;316761;-81
2023/06/10 13:46:11;;;;;;;7.32;4.20;;;;;;;;;;4386938;32;316640;-79
2023/06/10 13:48:38;;;;;;;5.03;4.12;;;;;;;;;;4377289;32;317030;-79
2023/06/10 13:51:06;;;;;;;4.80;3.97;;;;;;;;;;4386582;32;316721;-79
2023/06/10 13:53:34;;;;;;;4.90;4.15;;;;;;;;;;4377435;32;317136;-83
2023/06/10 13:56:03;;;;;;;8.43;4.45;;;;;;;;;;4387683;32;316961;-83
2023/06/10 13:58:30;;;;;;;5.05;4.03;;;;;;;;;;4375930;32;316839;-83
2023/06/10 14:00:58;;;;;;;8.27;4.18;;;;;;;;;;4386790;32;316797;-78
2023/06/10 14:03:25;;;;;;;4.62;3.80;;;;;;;;;;4376424;32;316895;-78
2023/06/10 14:05:53;;;;;;;5.32;4.15;;;;;;;;;;4386812;32;316682;-78
2023/06/10 14:08:21;;;;;;;3.95;3.55;;;;;;;;;;4376521;32;316943;-78
2023/06/10 14:10:49;;;;;;;5.72;3.70;;;;;;;;;;4386004;32;316964;-79
2023/06/10 14:13:18;;;;;;;4.40;3.28;;;;;;;;;;4376267;32;317004;-81
2023/06/10 14:15:46;;;;;;;3.55;2.58;;;;;;;;;;4386622;32;316939;-78
2023/06/10 14:18:13;;;;;;;4.12;2.85;;;;;;;;;;4386649;32;316931;-79
2023/06/10 14:20:41;;;;;;;3.62;2.67;;;;;;;;;;4374821;32;324060;-78
2023/06/10 14:23:08;;;;;;;4.43;2.47;;;;;;;;;;4382782;32;316848;-78
2023/06/10 14:25:35;;;;;;;2.92;2.55;;;;;;;;;;4382957;32;316886;-77
2023/06/10 14:28:02;;;;;;;3.10;2.50;;;;;;;;;;4386809;32;317144;-77
2023/06/10 14:30:31;;;;;;;4.10;3.65;;;;;;;;;;4375291;32;316712;-77
2023/06/10 14:32:59;;;;;;;2.75;2.30;;;;;;;;;;4385315;32;316491;-77
2023/06/10 14:35:26;;;;;;;3.28;2.33;;;;;;;;;;4375047;32;316994;-77